Stations météo

réclame
Mon MeteoGroup
Chateau Chinon, France (7270): Température de l'air & dewpoint: 10.11.2018 00:00:00 - 16.11.2018 00:00:00 (CET)Chateau Chinon, France (7270): Vitesse du vent & gusts: 10.11.2018 00:00:00 - 16.11.2018 00:00:00 (CET)Chateau Chinon, France (7270): Direction du vent: 10.11.2018 00:00:00 - 16.11.2018 00:00:00 (CET)Chateau Chinon, France (7270): Quantités de précipitations: 10.11.2018 00:00:00 - 16.11.2018 00:00:00 (CET)
Date & Time tt [°C] td [°C] ff [km/h] ff [knt] fx [km/h] fx [knt] dd rr [mm]
16.11.2018 00:00:00 9,8 7,7 8 4 16 9 SE 0,0
15.11.2018 23:00:00 9,6 7,9 8 4 15 8 SE 0,0
15.11.2018 22:00:00 8,3 7,2 8 4 16 9 ESE 0,0
15.11.2018 21:00:00 8,7 7,5 8 4 18 10 ESE 0,0
15.11.2018 20:00:00 9,1 7,9 8 4 16 9 ESE 0,0
15.11.2018 19:00:00 9,3 8,1 8 4 15 8 ESE -
15.11.2018 18:00:00 9,7 8,0 5 3 15 8 ESE 0,0
15.11.2018 17:00:00 10,8 8,2 8 4 16 9 ESE 0,0
15.11.2018 16:00:00 14,0 8,4 4 2 16 9 ESE 0,0
15.11.2018 15:00:00 16,7 7,9 5 3 18 10 SSE 0,0
15.11.2018 14:00:00 16,8 8,7 4 2 18 10 SE 0,0
15.11.2018 13:00:00 16,1 8,6 4 2 15 8 ESE -
15.11.2018 12:00:00 15,0 8,9 2 1 15 8 W 0,0
15.11.2018 11:00:00 12,7 8,4 8 4 18 10 ESE 0,0
15.11.2018 10:00:00 10,8 8,2 8 4 21 11 ESE 0,0
15.11.2018 09:00:00 8,5 7,1 8 4 16 9 ESE 0,0
15.11.2018 08:00:00 8,0 6,6 8 4 21 11 ESE 0,0
15.11.2018 07:00:00 7,5 6,8 9 5 21 11 ESE -
15.11.2018 06:00:00 7,4 6,7 9 5 16 9 SE 0,0
15.11.2018 05:00:00 8,0 6,9 9 5 21 11 SE 0,0
15.11.2018 04:00:00 8,0 7,2 8 4 16 9 ESE 0,0
15.11.2018 03:00:00 8,3 7,9 9 5 18 10 SE 0,0
15.11.2018 02:00:00 8,0 7,6 9 5 22 12 SE 0,0
15.11.2018 01:00:00 8,4 8,1 9 5 18 10 ESE -
15.11.2018 00:00:00 8,1 7,8 9 5 18 10 SE 0,0
14.11.2018 23:00:00 7,7 7,4 9 5 21 11 ESE 0,0
14.11.2018 22:00:00 7,6 7,3 9 5 18 10 ESE 0,0
14.11.2018 21:00:00 7,2 6,8 9 5 24 13 ESE 0,0
14.11.2018 20:00:00 7,3 6,9 9 5 24 13 E 0,0
14.11.2018 19:00:00 7,3 6,7 9 5 22 12 ESE -
14.11.2018 18:00:00 8,0 7,1 9 5 21 11 ESE 0,0
14.11.2018 17:00:00 9,3 7,6 8 4 16 9 ESE 0,0
14.11.2018 16:00:00 13,2 9,1 2 1 8 4 ESE 0,0
14.11.2018 15:00:00 13,8 9,4 2 1 9 5 W 0,0
14.11.2018 14:00:00 14,3 9,7 4 2 9 5 WSW 0,0
14.11.2018 13:00:00 13,6 9,8 4 2 11 6 SW -
14.11.2018 12:00:00 12,8 8,7 4 2 18 10 WSW 0,0
14.11.2018 11:00:00 12,8 8,7 2 1 11 6 ESE 0,0
14.11.2018 10:00:00 10,4 7,8 4 2 13 7 ESE 0,0
14.11.2018 09:00:00 8,4 7,2 5 3 22 12 ESE 0,0
14.11.2018 08:00:00 7,0 6,1 8 4 22 12 ESE 0,0
14.11.2018 07:00:00 6,9 6,0 9 5 26 14 E -
14.11.2018 06:00:00 6,9 6,3 8 4 22 12 E 0,0
14.11.2018 05:00:00 6,7 6,3 8 4 21 11 E 0,0
14.11.2018 04:00:00 6,8 6,4 8 4 24 13 E 0,0
14.11.2018 03:00:00 6,9 6,5 8 4 26 14 E 0,0
14.11.2018 02:00:00 6,9 6,5 8 4 22 12 E 0,0
14.11.2018 01:00:00 6,6 6,2 5 3 18 10 E -
14.11.2018 00:00:00 6,5 6,1 5 3 16 9 ESE 0,0
13.11.2018 23:00:00 7,0 6,6 5 3 15 8 E 0,0
13.11.2018 22:00:00 6,5 6,1 5 3 18 10 ESE 0,0
13.11.2018 21:00:00 6,5 6,1 5 3 11 6 E 0,0
13.11.2018 20:00:00 6,2 5,8 4 2 9 5 E 0,0
13.11.2018 19:00:00 6,7 6,1 4 2 8 4 E -
13.11.2018 18:00:00 7,6 6,7 2 1 5 3 E 0,0
13.11.2018 17:00:00 8,9 6,9 4 2 9 5 SW 0,0
13.11.2018 16:00:00 10,8 7,8 4 2 11 6 W 0,0
13.11.2018 15:00:00 9,2 7,6 2 1 8 4 W 0,0
13.11.2018 14:00:00 11,2 7,9 2 1 11 6 WNW 0,0
13.11.2018 13:00:00 12,3 8,4 4 2 13 7 NW -
13.11.2018 12:00:00 10,9 7,8 4 2 13 7 SW 0,0
13.11.2018 11:00:00 9,8 8,1 4 2 11 6 W 0,0
13.11.2018 10:00:00 8,5 8,2 2 1 11 6 NW 0,0
13.11.2018 09:00:00 8,6 8,2 2 1 9 5 W 0,4
13.11.2018 08:00:00 8,8 8,3 4 2 16 9 WNW 1,0
13.11.2018 07:00:00 8,5 8,1 9 5 21 11 SSW -
13.11.2018 06:00:00 8,4 7,8 9 5 21 11 SSW 0,8
13.11.2018 05:00:00 8,3 7,9 5 3 13 7 SSE 1,0
13.11.2018 04:00:00 8,7 8,2 2 1 9 5 W 2,0
13.11.2018 03:00:00 8,7 8,2 0 0 8 4 N 1,0
13.11.2018 02:00:00 8,9 8,4 2 1 8 4 NNW 0,6
13.11.2018 01:00:00 9,3 8,8 0 0 5 3 N -
13.11.2018 00:00:00 9,5 9,0 2 1 11 6 NW 2,0
12.11.2018 23:00:00 9,7 9,2 0 0 9 5 N 4,0
12.11.2018 22:00:00 10,0 9,5 2 1 13 7 SSE 2,0
12.11.2018 21:00:00 10,6 10,1 4 2 11 6 W 4,0
12.11.2018 20:00:00 11,2 10,7 4 2 22 12 WNW 1,0
12.11.2018 19:00:00 11,4 10,8 2 1 8 4 E -
12.11.2018 18:00:00 11,8 10,9 0 0 5 3 N 0,6
12.11.2018 17:00:00 12,1 10,7 2 1 16 9 NNW 0,0
12.11.2018 16:00:00 13,5 10,8 4 2 13 7 WNW 0,0
12.11.2018 15:00:00 15,4 11,0 4 2 22 12 W 0,0
12.11.2018 14:00:00 15,6 10,8 5 3 52 28 WNW 0,0
12.11.2018 13:00:00 17,4 9,8 16 9 44 24 SW -
12.11.2018 12:00:00 16,5 9,9 15 8 42 23 SSW 0,0
12.11.2018 11:00:00 16,2 9,6 18 10 55 30 SSW 0,0
12.11.2018 10:00:00 15,7 9,6 16 9 50 27 SSW 0,0
12.11.2018 09:00:00 15,1 9,5 11 6 48 26 S 0,0
12.11.2018 08:00:00 14,4 9,2 11 6 42 23 S 0,0
12.11.2018 07:00:00 14,2 9,2 11 6 46 25 S -
12.11.2018 06:00:00 14,0 9,0 13 7 50 27 SSE 0,0
12.11.2018 05:00:00 13,9 8,9 15 8 48 26 SSE 0,0
12.11.2018 04:00:00 13,7 8,9 11 6 50 27 SSE 0,0
12.11.2018 03:00:00 13,8 9,0 15 8 50 27 SSE 0,0
12.11.2018 02:00:00 13,6 9,0 15 8 44 24 SSE 0,0
12.11.2018 01:00:00 14,1 9,1 13 7 48 26 SSE -
12.11.2018 00:00:00 14,2 8,8 15 8 39 21 SSE 0,0
11.11.2018 23:00:00 13,3 8,8 11 6 37 20 SE 0,0
11.11.2018 22:00:00 13,8 8,4 8 4 34 18 S 0,0
11.11.2018 21:00:00 13,8 8,6 9 5 41 22 S 0,0
11.11.2018 20:00:00 14,0 9,0 9 5 34 18 S 0,0
11.11.2018 19:00:00 13,9 8,9 8 4 34 18 S -
11.11.2018 18:00:00 14,0 9,4 11 6 28 15 SSW 0,0
11.11.2018 17:00:00 15,1 7,9 13 7 35 19 SSW 0,0
11.11.2018 16:00:00 15,2 8,4 9 5 37 20 SSW 0,0
11.11.2018 15:00:00 16,6 6,7 11 6 39 21 SSW 0,0
11.11.2018 14:00:00 16,3 7,2 21 11 52 28 SSW 0,0
11.11.2018 13:00:00 15,5 7,5 13 7 37 20 SSW -
11.11.2018 12:00:00 14,5 7,5 15 8 46 25 SSW 0,0
11.11.2018 11:00:00 13,4 6,5 13 7 39 21 SSW 0,0
11.11.2018 10:00:00 11,8 5,6 11 6 35 19 S 0,0
11.11.2018 09:00:00 10,2 5,4 13 7 46 25 SSW 0,0
11.11.2018 08:00:00 9,4 5,4 22 12 52 28 SSW 0,0
11.11.2018 07:00:00 9,5 5,5 24 13 65 35 SW -
11.11.2018 06:00:00 8,5 5,8 24 13 59 32 SSW 0,0
11.11.2018 05:00:00 8,4 6,0 22 12 54 29 SW 0,0
11.11.2018 04:00:00 8,6 6,0 24 13 52 28 SW 0,0
11.11.2018 03:00:00 8,3 6,8 15 8 41 22 SSW 1,0
11.11.2018 02:00:00 8,2 7,3 8 4 31 17 WSW 1,0
11.11.2018 01:00:00 8,7 7,3 9 5 31 17 SW -
11.11.2018 00:00:00 8,7 7,1 8 4 44 24 W 0,6
10.11.2018 23:00:00 9,7 7,0 15 8 55 30 SW 0,0
10.11.2018 22:00:00 9,6 7,2 22 12 48 26 SW 0,0
10.11.2018 21:00:00 9,2 7,8 21 11 44 24 SW 0,0
10.11.2018 20:00:00 8,9 7,5 16 9 37 20 SSW 0,0
10.11.2018 19:00:00 8,4 7,2 11 6 57 31 SSW -
10.11.2018 18:00:00 8,3 7,7 8 4 39 21 W 3,0
10.11.2018 17:00:00 10,3 9,8 16 9 35 19 SSW 0,8
10.11.2018 16:00:00 10,3 9,7 5 3 34 18 W 6,0
10.11.2018 15:00:00 10,7 9,3 13 7 29 16 SSW 1,0
10.11.2018 14:00:00 10,7 9,6 9 5 34 18 SSE 0,8
10.11.2018 13:00:00 10,8 9,6 11 6 37 20 SSW -
10.11.2018 12:00:00 10,6 10,0 8 4 29 16 SSE 0,2
10.11.2018 11:00:00 10,2 9,6 11 6 31 17 SSW 2,0
10.11.2018 10:00:00 10,1 9,5 13 7 31 17 SSW 3,0
10.11.2018 09:00:00 10,3 9,4 9 5 35 19 S 2,0
10.11.2018 08:00:00 10,4 9,3 9 5 37 20 S 2,0
10.11.2018 07:00:00 10,8 8,9 9 5 44 24 S -
10.11.2018 06:00:00 11,1 8,7 15 8 42 23 SSW 0,2
10.11.2018 05:00:00 11,1 8,5 11 6 50 27 S 0,0
10.11.2018 04:00:00 11,2 7,9 15 8 46 25 SSW 0,0
10.11.2018 03:00:00 11,2 7,3 13 7 48 26 S 0,0
10.11.2018 02:00:00 11,2 7,5 9 5 52 28 S 0,0
10.11.2018 01:00:00 11,8 7,3 13 7 46 25 S -
10.11.2018 00:00:00 11,6 7,5 11 6 39 21 S 0,0

tt = Température de l'air
td = dewpoint
ff = Vitesse du vent
fx = gusts
dd = Direction du vent
rr = Quantités de précipitations

stations d'obs. à proximité